Time;durP1;ratioP1;P1;durP2;ratioP2;P2;SDS_P1;SDS_P2;PMS_P1;PMS_P2;Temp;Humidity;BMP_temperature;BMP_pressure;BME280_temperature;BME280_humidity;BME280_pressure;Samples;Min_cycle;Max_cycle;Signal;HPM_P1;HPM_P2
2022/09/22 00:01:16;;;;;;;;;;;20.60;74.00;;;;;;5025482;28;1963;-70
2022/09/22 00:03:43;;;;;;;;;;;20.60;74.00;;;;;;5028938;28;1274;-69
2022/09/22 00:06:09;;;;;;;;;;;20.60;74.00;;;;;;5025810;28;1303;-69
2022/09/22 00:08:36;;;;;;;;;;;20.70;74.10;;;;;;5027506;28;899;-69
2022/09/22 00:11:12;;;;;;;;;;;20.60;74.00;;;;;;5028788;28;931;-70
2022/09/22 00:13:38;;;;;;;;;;;20.60;74.00;;;;;;5028319;28;907;-70
2022/09/22 00:16:06;;;;;;;;;;;20.60;74.00;;;;;;5025027;28;1256;-71
2022/09/22 00:18:31;;;;;;;;;;;20.60;74.00;;;;;;5029369;28;845;-70
2022/09/22 00:20:56;;;;;;;;;;;20.60;74.00;;;;;;5029157;28;903;-71
2022/09/22 00:23:23;;;;;;;;;;;20.60;74.00;;;;;;5029143;28;1968;-71
2022/09/22 00:25:49;;;;;;;;;;;20.60;74.00;;;;;;5027931;28;1178;-71
2022/09/22 00:28:14;;;;;;;;;;;20.70;74.10;;;;;;5030218;28;1006;-71
2022/09/22 00:30:41;;;;;;;;;;;20.70;74.10;;;;;;5032648;28;1007;-71
2022/09/22 00:33:07;;;;;;;;;;;20.60;74.00;;;;;;5031432;28;1427;-71
2022/09/22 00:35:34;;;;;;;;;;;20.60;74.00;;;;;;5027637;28;1292;-71
2022/09/22 00:38:00;;;;;;;;;;;20.60;74.00;;;;;;5032240;28;1155;-71
2022/09/22 00:40:25;;;;;;;;;;;20.60;74.00;;;;;;5031125;28;1455;-71
2022/09/22 00:42:51;;;;;;;;;;;20.60;74.10;;;;;;5031037;28;1957;-71
2022/09/22 00:45:16;;;;;;;;;;;20.60;74.10;;;;;;5028375;28;1348;-71
2022/09/22 00:47:42;;;;;;;;;;;20.60;74.10;;;;;;5031689;28;1018;-71
2022/09/22 00:50:17;;;;;;;;;;;20.60;74.00;;;;;;5031218;28;1017;-71
2022/09/22 00:52:45;;;;;;;;;;;20.60;74.10;;;;;;5028463;28;806;-71
2022/09/22 00:55:19;;;;;;;;;;;20.60;74.00;;;;;;5028057;28;1310;-71
2022/09/22 00:57:44;;;;;;;;;;;20.60;74.10;;;;;;5029622;28;1022;-71
2022/09/22 01:00:10;;;;;;;;;;;20.60;74.00;;;;;;5028525;28;839;-71
2022/09/22 01:02:36;;;;;;;;;;;20.70;74.10;;;;;;5030451;28;1961;-71
2022/09/22 01:05:02;;;;;;;;;;;20.60;74.00;;;;;;5027661;28;1283;-71
2022/09/22 01:07:27;;;;;;;;;;;20.60;74.10;;;;;;5001623;28;1371;-71
2022/09/22 01:09:54;;;;;;;;;;;20.60;74.00;;;;;;5029730;28;891;-70
2022/09/22 01:12:19;;;;;;;;;;;20.60;74.10;;;;;;5029861;28;930;-70
2022/09/22 01:14:56;;;;;;;;;;;20.60;74.00;;;;;;5026337;28;1272;-72
2022/09/22 01:17:47;;;;;;;;;;;20.60;74.00;;;;;;5026418;28;1179;-71
2022/09/22 01:20:31;;;;;;;;;;;20.60;74.00;;;;;;4996995;28;1217;-71
2022/09/22 01:23:14;;;;;;;;;;;20.60;74.00;;;;;;5028898;28;1926;-71
2022/09/22 01:25:58;;;;;;;;;;;20.60;74.00;;;;;;5025354;28;1308;-71
2022/09/22 01:28:23;;;;;;;;;;;20.60;74.00;;;;;;5026371;28;884;-71
2022/09/22 01:31:08;;;;;;;;;;;20.60;74.00;;;;;;5028875;28;898;-71
2022/09/22 01:33:49;;;;;;;;;;;20.60;74.10;;;;;;5026851;28;998;-71
2022/09/22 01:36:23;;;;;;;;;;;20.60;74.00;;;;;;5015538;28;1225;-71
2022/09/22 01:38:52;;;;;;;;;;;20.60;74.00;;;;;;5026056;28;894;-71
2022/09/22 01:41:18;;;;;;;;;;;20.60;74.00;;;;;;5026458;28;1975;-71
2022/09/22 01:43:54;;;;;;;;;;;20.70;74.10;;;;;;5026925;28;808;-71
2022/09/22 01:46:24;;;;;;;;;;;20.60;74.10;;;;;;5015394;28;1050;-71
2022/09/22 01:48:50;;;;;;;;;;;20.60;74.10;;;;;;5027598;28;807;-71
2022/09/22 01:51:20;;;;;;;;;;;20.60;74.10;;;;;;5027166;28;802;-71
2022/09/22 01:53:47;;;;;;;;;;;20.60;74.10;;;;;;5026747;28;1348;-71
2022/09/22 01:56:13;;;;;;;;;;;20.60;74.10;;;;;;5026233;28;796;-71
2022/09/22 01:58:39;;;;;;;;;;;20.60;74.10;;;;;;5027059;28;888;-70
2022/09/22 02:01:06;;;;;;;;;;;20.60;74.10;;;;;;5022976;28;1341;-70
2022/09/22 02:03:51;;;;;;;;;;;20.60;74.10;;;;;;5027865;28;1902;-71
2022/09/22 02:06:24;;;;;;;;;;;20.60;74.10;;;;;;5023259;28;1054;-70
2022/09/22 02:08:50;;;;;;;;;;;20.60;74.10;;;;;;5025257;28;967;-70
2022/09/22 02:11:16;;;;;;;;;;;20.60;74.00;;;;;;5023815;28;1077;-71
2022/09/22 02:13:45;;;;;;;;;;;20.60;74.00;;;;;;5028127;28;847;-70
2022/09/22 02:16:11;;;;;;;;;;;20.60;74.10;;;;;;5027547;28;1294;-70
2022/09/22 02:18:36;;;;;;;;;;;20.60;74.10;;;;;;5025112;28;896;-70
2022/09/22 02:21:02;;;;;;;;;;;20.60;74.10;;;;;;5025267;28;867;-70
2022/09/22 02:23:27;;;;;;;;;;;20.60;74.10;;;;;;5027023;28;1894;-70
2022/09/22 02:25:53;;;;;;;;;;;20.60;74.10;;;;;;5023769;28;1828;-70
2022/09/22 02:28:19;;;;;;;;;;;20.60;74.10;;;;;;5025471;28;1268;-71
2022/09/22 02:30:45;;;;;;;;;;;20.60;74.10;;;;;;5025043;28;927;-71
2022/09/22 02:33:11;;;;;;;;;;;20.60;74.10;;;;;;5027492;28;1438;-69
2022/09/22 02:35:36;;;;;;;;;;;20.60;74.00;;;;;;5024353;28;1235;-70
2022/09/22 02:38:08;;;;;;;;;;;20.60;74.10;;;;;;5023184;28;999;-70
2022/09/22 02:40:43;;;;;;;;;;;20.60;74.00;;;;;;5023648;28;1394;-70
2022/09/22 02:43:13;;;;;;;;;;;20.60;74.00;;;;;;5025026;28;1973;-70
2022/09/22 02:45:39;;;;;;;;;;;20.60;74.00;;;;;;5023549;28;2116;-70
2022/09/22 02:48:10;;;;;;;;;;;20.60;74.00;;;;;;5020907;28;1333;-70
2022/09/22 02:50:35;;;;;;;;;;;20.60;74.00;;;;;;5028043;28;1444;-70
2022/09/22 02:53:02;;;;;;;;;;;20.60;74.00;;;;;;5025105;28;1266;-70
2022/09/22 02:55:27;;;;;;;;;;;20.60;74.00;;;;;;5019487;28;1266;-70
2022/09/22 02:57:53;;;;;;;;;;;20.60;74.00;;;;;;5021825;28;901;-70
2022/09/22 03:00:19;;;;;;;;;;;20.60;74.00;;;;;;5023996;28;851;-70
2022/09/22 03:02:44;;;;;;;;;;;20.60;74.10;;;;;;5026155;28;1902;-70
2022/09/22 03:05:09;;;;;;;;;;;20.60;74.00;;;;;;5023717;28;1255;-70
2022/09/22 03:07:35;;;;;;;;;;;20.60;74.00;;;;;;5022352;28;939;-70
2022/09/22 03:10:01;;;;;;;;;;;20.60;74.00;;;;;;5025818;28;950;-70
2022/09/22 03:12:26;;;;;;;;;;;20.60;74.00;;;;;;5025695;28;923;-71
2022/09/22 03:14:52;;;;;;;;;;;20.60;74.00;;;;;;5021471;28;1319;-69
2022/09/22 03:17:17;;;;;;;;;;;20.60;74.00;;;;;;5020694;28;1049;-70
2022/09/22 03:19:42;;;;;;;;;;;20.60;74.00;;;;;;5026122;28;859;-70
2022/09/22 03:22:08;;;;;;;;;;;20.60;74.00;;;;;;5025086;28;1922;-70
2022/09/22 03:24:33;;;;;;;;;;;20.60;74.00;;;;;;5021128;28;1259;-70
2022/09/22 03:26:59;;;;;;;;;;;20.60;74.00;;;;;;5020074;28;891;-72
2022/09/22 03:29:24;;;;;;;;;;;20.60;74.00;;;;;;5022404;28;1245;-69
2022/09/22 03:31:50;;;;;;;;;;;20.60;74.00;;;;;;5027702;28;932;-70
2022/09/22 03:34:15;;;;;;;;;;;20.60;74.00;;;;;;5019448;28;1349;-70
2022/09/22 03:36:41;;;;;;;;;;;20.60;74.00;;;;;;5020583;28;905;-69
2022/09/22 03:39:06;;;;;;;;;;;20.60;74.00;;;;;;5025834;28;1042;-69
2022/09/22 03:41:32;;;;;;;;;;;20.60;74.00;;;;;;5024919;28;1966;-70
2022/09/22 03:43:57;;;;;;;;;;;20.60;74.00;;;;;;5020455;28;1268;-69
2022/09/22 03:46:23;;;;;;;;;;;20.60;74.00;;;;;;5020022;28;951;-70
2022/09/22 03:48:49;;;;;;;;;;;20.60;74.00;;;;;;5025909;28;907;-69
2022/09/22 03:51:14;;;;;;;;;;;20.60;74.00;;;;;;5023682;28;895;-69
2022/09/22 03:53:40;;;;;;;;;;;20.60;74.00;;;;;;5019727;28;892;-70
2022/09/22 03:56:09;;;;;;;;;;;20.60;73.90;;;;;;5035549;28;1161;-69
2022/09/22 03:58:35;;;;;;;;;;;20.60;74.00;;;;;;5029576;28;832;-68
2022/09/22 04:01:00;;;;;;;;;;;20.60;74.00;;;;;;5022729;28;864;-68
2022/09/22 04:03:26;;;;;;;;;;;20.60;74.00;;;;;;5021219;28;1906;-68
2022/09/22 04:05:51;;;;;;;;;;;20.60;74.00;;;;;;5022930;28;1442;-68
2022/09/22 04:08:17;;;;;;;;;;;20.60;74.00;;;;;;5031979;28;851;-68
2022/09/22 04:10:43;;;;;;;;;;;20.60;73.90;;;;;;5025367;28;923;-68
2022/09/22 04:13:09;;;;;;;;;;;20.60;73.90;;;;;;5022352;28;868;-68
2022/09/22 04:15:34;;;;;;;;;;;20.60;74.00;;;;;;5021880;28;1359;-68
2022/09/22 04:17:59;;;;;;;;;;;20.60;73.90;;;;;;5030201;28;962;-68
2022/09/22 04:20:26;;;;;;;;;;;20.60;74.00;;;;;;5027513;28;969;-69
2022/09/22 04:22:51;;;;;;;;;;;20.60;74.00;;;;;;5023237;28;1909;-68
2022/09/22 04:25:17;;;;;;;;;;;20.60;73.90;;;;;;5024238;28;1352;-70
2022/09/22 04:27:42;;;;;;;;;;;20.60;73.90;;;;;;5030241;28;804;-68
2022/09/22 04:30:08;;;;;;;;;;;20.60;73.90;;;;;;5024756;28;1014;-68
2022/09/22 04:32:34;;;;;;;;;;;20.60;73.90;;;;;;5026483;28;1172;-69
2022/09/22 04:34:59;;;;;;;;;;;20.60;73.90;;;;;;5020242;28;1250;-70
2022/09/22 04:37:25;;;;;;;;;;;20.60;73.90;;;;;;5031795;28;892;-68
2022/09/22 04:39:52;;;;;;;;;;;20.60;73.90;;;;;;5026188;28;807;-69
2022/09/22 04:42:18;;;;;;;;;;;20.60;73.90;;;;;;5022474;28;1917;-69
2022/09/22 04:44:45;;;;;;;;;;;20.60;73.90;;;;;;5022436;28;1267;-68
2022/09/22 04:47:10;;;;;;;;;;;20.60;73.90;;;;;;5031454;28;870;-69
2022/09/22 04:49:35;;;;;;;;;;;20.60;73.90;;;;;;5025945;28;1017;-69
2022/09/22 04:52:01;;;;;;;;;;;20.60;73.90;;;;;;5021269;28;1010;-68
2022/09/22 04:54:26;;;;;;;;;;;20.60;73.90;;;;;;5021168;28;1423;-68
2022/09/22 04:56:52;;;;;;;;;;;20.60;73.90;;;;;;5030632;28;804;-68
2022/09/22 04:59:17;;;;;;;;;;;20.60;73.90;;;;;;5025870;28;879;-69
2022/09/22 05:01:43;;;;;;;;;;;20.60;73.80;;;;;;5021152;28;1970;-69
2022/09/22 05:04:08;;;;;;;;;;;20.60;73.90;;;;;;5020951;28;1333;-68
2022/09/22 05:06:35;;;;;;;;;;;20.60;73.90;;;;;;5030884;28;912;-68
2022/09/22 05:09:01;;;;;;;;;;;20.60;73.90;;;;;;5025597;28;910;-68
2022/09/22 05:11:29;;;;;;;;;;;20.60;73.90;;;;;;5023421;28;941;-69
2022/09/22 05:13:54;;;;;;;;;;;20.60;73.90;;;;;;5020880;28;1252;-69
2022/09/22 05:16:20;;;;;;;;;;;20.60;73.80;;;;;;5029102;28;886;-69
2022/09/22 05:18:45;;;;;;;;;;;20.60;73.80;;;;;;5023542;28;4112;-69
2022/09/22 05:21:11;;;;;;;;;;;20.60;73.80;;;;;;5030377;28;3642;-68
2022/09/22 05:23:38;;;;;;;;;;;20.60;73.80;;;;;;5026014;28;1898;-69
2022/09/22 05:26:03;;;;;;;;;;;20.60;73.80;;;;;;5027865;28;1374;-70
2022/09/22 05:28:29;;;;;;;;;;;20.60;73.80;;;;;;5024300;28;1074;-68
2022/09/22 05:30:54;;;;;;;;;;;20.60;73.80;;;;;;5021797;28;1062;-69
2022/09/22 05:33:19;;;;;;;;;;;20.60;73.80;;;;;;5028342;28;1014;-68
2022/09/22 05:35:45;;;;;;;;;;;20.60;73.80;;;;;;5028137;28;1243;-68
2022/09/22 05:38:10;;;;;;;;;;;20.60;73.80;;;;;;5022214;28;820;-69
2022/09/22 05:40:36;;;;;;;;;;;20.60;73.80;;;;;;5016765;28;1402;-69
2022/09/22 05:43:01;;;;;;;;;;;20.60;73.80;;;;;;5034850;28;2012;-69
2022/09/22 05:45:27;;;;;;;;;;;20.60;73.90;;;;;;5034468;28;1185;-68
2022/09/22 05:47:52;;;;;;;;;;;20.60;73.90;;;;;;5017234;28;891;-69
2022/09/22 05:50:18;;;;;;;;;;;20.60;73.80;;;;;;5027919;28;1072;-68
2022/09/22 05:52:43;;;;;;;;;;;20.60;73.80;;;;;;5017243;28;825;-68
2022/09/22 05:55:09;;;;;;;;;;;20.60;73.80;;;;;;5034632;28;1216;-68
2022/09/22 05:57:35;;;;;;;;;;;20.60;73.80;;;;;;5022832;28;1065;-68
2022/09/22 06:00:01;;;;;;;;;;;20.60;73.80;;;;;;5034750;28;907;-69
2022/09/22 06:02:26;;;;;;;;;;;20.60;73.80;;;;;;5032648;28;1976;-68
2022/09/22 06:04:52;;;;;;;;;;;20.60;73.90;;;;;;5014676;28;1297;-68
2022/09/22 06:07:19;;;;;;;;;;;20.60;73.80;;;;;;4997520;28;866;-68
2022/09/22 06:09:45;;;;;;;;;;;20.60;73.90;;;;;;4997455;28;813;-68
2022/09/22 06:12:10;;;;;;;;;;;20.60;73.80;;;;;;5032638;28;962;-68
2022/09/22 06:14:36;;;;;;;;;;;20.60;73.80;;;;;;5034208;28;1276;-69
2022/09/22 06:17:02;;;;;;;;;;;20.60;73.80;;;;;;5016215;28;899;-68
2022/09/22 06:19:28;;;;;;;;;;;20.60;73.80;;;;;;5014624;28;800;-68
2022/09/22 06:21:54;;;;;;;;;;;20.60;73.80;;;;;;5014501;28;1894;-69
2022/09/22 06:24:19;;;;;;;;;;;20.60;73.80;;;;;;5014243;28;1274;-68
2022/09/22 06:26:44;;;;;;;;;;;20.60;73.80;;;;;;5013863;28;916;-68
2022/09/22 06:29:10;;;;;;;;;;;20.60;73.80;;;;;;5014483;28;817;-69
2022/09/22 06:31:35;;;;;;;;;;;20.60;73.80;;;;;;5026168;28;859;-68
2022/09/22 06:34:01;;;;;;;;;;;20.60;73.80;;;;;;5034002;28;1596;-68
2022/09/22 06:36:30;;;;;;;;;;;20.60;73.90;;;;;;5033827;28;911;-68
2022/09/22 06:38:59;;;;;;;;;;;20.60;73.80;;;;;;5032972;28;820;-68
2022/09/22 06:41:25;;;;;;;;;;;20.60;73.80;;;;;;5014215;28;1975;-68
2022/09/22 06:43:54;;;;;;;;;;;20.60;73.80;;;;;;5018578;28;1268;-69
2022/09/22 06:46:26;;;;;;;;;;;20.60;73.80;;;;;;5033969;28;918;-68
2022/09/22 06:48:56;;;;;;;;;;;20.60;73.80;;;;;;5033871;28;1085;-68
2022/09/22 06:51:25;;;;;;;;;;;20.60;73.80;;;;;;5025554;28;856;-68
2022/09/22 06:53:51;;;;;;;;;;;20.60;73.90;;;;;;5030374;28;1206;-69
2022/09/22 06:56:19;;;;;;;;;;;20.60;73.90;;;;;;5016097;28;863;-68
2022/09/22 06:58:44;;;;;;;;;;;20.60;73.80;;;;;;5033743;28;816;-68
2022/09/22 07:01:10;;;;;;;;;;;20.60;73.80;;;;;;5032336;28;1211;-68
2022/09/22 07:03:39;;;;;;;;;;;20.60;73.80;;;;;;5022053;28;1898;-68
2022/09/22 07:06:06;;;;;;;;;;;20.60;73.80;;;;;;5012435;28;1363;-68
2022/09/22 07:08:32;;;;;;;;;;;20.60;73.80;;;;;;5013786;28;792;-69
2022/09/22 07:10:59;;;;;;;;;;;20.60;73.80;;;;;;5012483;28;954;-69
2022/09/22 07:13:26;;;;;;;;;;;20.60;73.80;;;;;;5013682;28;780;-68
2022/09/22 07:15:52;;;;;;;;;;;20.60;73.80;;;;;;5012190;28;1320;-69
2022/09/22 07:18:18;;;;;;;;;;;20.60;73.80;;;;;;5024147;28;887;-69
2022/09/22 07:20:44;;;;;;;;;;;20.60;73.80;;;;;;5033186;28;816;-68
2022/09/22 07:23:16;;;;;;;;;;;20.60;73.80;;;;;;5020042;28;1899;-68
2022/09/22 07:25:43;;;;;;;;;;;20.60;73.80;;;;;;5016154;28;1264;-67
2022/09/22 07:28:11;;;;;;;;;;;20.60;73.80;;;;;;5033244;28;832;-69
2022/09/22 07:30:39;;;;;;;;;;;20.60;73.80;;;;;;5030218;28;839;-68
2022/09/22 07:33:04;;;;;;;;;;;20.60;73.90;;;;;;5029117;28;840;-69
2022/09/22 07:35:30;;;;;;;;;;;20.60;73.80;;;;;;5027019;28;1280;-68
2022/09/22 07:37:58;;;;;;;;;;;20.60;73.80;;;;;;5024205;28;1698;-69
2022/09/22 07:40:23;;;;;;;;;;;20.60;73.80;;;;;;5029543;28;1161;-71
2022/09/22 07:42:49;;;;;;;;;;;20.60;73.80;;;;;;5012791;28;2254;-68
2022/09/22 07:45:14;;;;;;;;;;;20.60;73.80;;;;;;5025969;28;1558;-69
2022/09/22 07:50:27;;;;;;;;;;;20.60;73.80;;;;;;5017701;28;775;-70
2022/09/22 07:52:53;;;;;;;;;;;20.60;73.80;;;;;;5002999;28;860;-69
2022/09/22 07:55:23;;;;;;;;;;;20.60;73.80;;;;;;5006655;28;1345;-70
2022/09/22 07:57:53;;;;;;;;;;;20.60;73.80;;;;;;5022892;28;863;-68
2022/09/22 08:00:19;;;;;;;;;;;20.60;73.80;;;;;;5023911;28;871;-69
2022/09/22 08:02:49;;;;;;;;;;;20.60;73.80;;;;;;5028171;28;2109;-68
2022/09/22 08:05:15;;;;;;;;;;;20.60;73.80;;;;;;5026053;28;1375;-69
2022/09/22 08:07:42;;;;;;;;;;;20.60;73.80;;;;;;5024926;28;965;-68
2022/09/22 08:10:09;;;;;;;;;;;20.60;73.80;;;;;;5019327;28;2047;-68
2022/09/22 08:12:36;;;;;;;;;;;20.60;73.80;;;;;;5025309;28;1340;-69
2022/09/22 08:15:01;;;;;;;;;;;20.60;73.80;;;;;;5026119;28;1440;-68
2022/09/22 08:17:27;;;;;;;;;;;20.60;73.80;;;;;;5026611;28;1226;-68
2022/09/22 08:19:52;;;;;;;;;;;20.60;72.80;;;;;;5026828;28;1508;-68
2022/09/22 08:22:17;;;;;;;;;;;20.60;71.00;;;;;;5026496;28;1953;-67
2022/09/22 08:24:44;;;;;;;;;;;20.60;69.20;;;;;;5026062;28;1272;-68
2022/09/22 08:27:09;;;;;;;;;;;20.60;67.40;;;;;;5022889;28;2090;-68
2022/09/22 08:29:35;;;;;;;;;;;20.60;65.00;;;;;;5024411;28;2136;-68
2022/09/22 08:32:01;;;;;;;;;;;20.50;63.50;;;;;;5010737;28;1425;-68
2022/09/22 08:34:26;;;;;;;;;;;20.50;63.80;;;;;;5009424;28;2204;-68
2022/09/22 08:36:51;;;;;;;;;;;20.50;63.30;;;;;;5019959;28;1348;-67
2022/09/22 08:39:17;;;;;;;;;;;20.50;62.30;;;;;;5003655;28;1456;-68
2022/09/22 08:42:06;;;;;;;;;;;20.50;59.40;;;;;;5025097;28;1985;-68
2022/09/22 08:44:36;;;;;;;;;;;20.40;58.80;;;;;;5011950;28;1248;-67
2022/09/22 08:47:01;;;;;;;;;;;20.40;60.40;;;;;;5019122;28;859;-68
2022/09/22 08:52:37;;;;;;;;;;;20.40;59.80;;;;;;5012531;28;919;-68
2022/09/22 08:55:03;;;;;;;;;;;20.30;60.50;;;;;;4996988;28;1370;-68
2022/09/22 08:57:48;;;;;;;;;;;20.30;60.20;;;;;;5018648;28;808;-68
2022/09/22 09:00:13;;;;;;;;;;;20.30;60.10;;;;;;5024704;28;922;-68
2022/09/22 09:02:49;;;;;;;;;;;20.30;60.50;;;;;;5002254;28;1898;-68
2022/09/22 09:05:30;;;;;;;;;;;20.30;61.00;;;;;;5015937;28;1269;-68
2022/09/22 09:08:14;;;;;;;;;;;20.20;59.40;;;;;;5026844;28;861;-68
2022/09/22 09:10:39;;;;;;;;;;;20.20;58.80;;;;;;5028390;28;871;-68
2022/09/22 09:13:05;;;;;;;;;;;20.20;58.90;;;;;;5031824;28;832;-68
2022/09/22 09:15:36;;;;;;;;;;;20.20;58.40;;;;;;5024389;28;1359;-68
2022/09/22 09:18:02;;;;;;;;;;;20.20;58.50;;;;;;5006367;28;1736;-68
2022/09/22 09:20:46;;;;;;;;;;;20.20;58.00;;;;;;5006933;28;1173;-67
2022/09/22 09:23:18;;;;;;;;;;;20.20;57.90;;;;;;5014467;28;1952;-67
2022/09/22 09:25:53;;;;;;;;;;;20.10;55.90;;;;;;5025722;28;1266;-67
2022/09/22 09:28:32;;;;;;;;;;;20.10;56.50;;;;;;5007500;28;813;-67
2022/09/22 09:31:07;;;;;;;;;;;20.10;56.40;;;;;;5011376;28;1098;-68
2022/09/22 09:33:48;;;;;;;;;;;20.10;56.20;;;;;;4997123;28;820;-67
2022/09/22 09:36:14;;;;;;;;;;;20.10;56.40;;;;;;5018897;28;889;-68
2022/09/22 09:38:43;;;;;;;;;;;20.10;55.30;;;;;;5022674;28;1027;-67
2022/09/22 09:41:14;;;;;;;;;;;20.10;55.90;;;;;;5022613;28;1476;-68
2022/09/22 09:43:41;;;;;;;;;;;20.10;56.40;;;;;;5013484;28;1907;-68
2022/09/22 09:46:20;;;;;;;;;;;20.00;56.10;;;;;;5020640;28;1200;-68
2022/09/22 09:48:57;;;;;;;;;;;20.10;57.00;;;;;;5004897;28;931;-68
2022/09/22 09:51:22;;;;;;;;;;;20.00;56.40;;;;;;5012274;28;886;-68
2022/09/22 09:53:48;;;;;;;;;;;20.00;56.60;;;;;;5024108;28;1303;-70
2022/09/22 09:56:27;;;;;;;;;;;20.00;56.90;;;;;;5020583;28;887;-68
2022/09/22 10:01:45;;;;;;;;;;;20.00;54.70;;;;;;5017078;28;1910;-67
2022/09/22 10:04:17;;;;;;;;;;;20.00;55.40;;;;;;5017325;28;1342;-67
2022/09/22 10:06:43;;;;;;;;;;;20.00;55.30;;;;;;5022536;28;937;-68
2022/09/22 10:09:09;;;;;;;;;;;20.00;55.70;;;;;;5028230;28;848;-68
2022/09/22 10:11:34;;;;;;;;;;;20.00;56.20;;;;;;5032392;28;1038;-68
2022/09/22 10:14:00;;;;;;;;;;;20.00;55.70;;;;;;5015729;28;1271;-67
2022/09/22 10:16:29;;;;;;;;;;;20.00;55.90;;;;;;5006620;28;929;-67
2022/09/22 10:18:58;;;;;;;;;;;20.00;55.80;;;;;;5017829;28;1319;-67
2022/09/22 10:21:23;;;;;;;;;;;20.00;55.60;;;;;;5015125;28;837;-68
2022/09/22 10:23:49;;;;;;;;;;;20.00;55.50;;;;;;5017944;28;1902;-68
2022/09/22 10:26:21;;;;;;;;;;;20.00;54.80;;;;;;5021152;28;856;-68
2022/09/22 10:29:05;;;;;;;;;;;20.00;55.20;;;;;;5028741;28;962;-68
2022/09/22 10:31:31;;;;;;;;;;;20.00;55.70;;;;;;5031227;28;1456;-67
2022/09/22 10:33:58;;;;;;;;;;;20.00;55.00;;;;;;5017491;28;1334;-68
2022/09/22 10:36:25;;;;;;;;;;;20.00;54.70;;;;;;5023397;28;832;-68
2022/09/22 10:38:50;;;;;;;;;;;20.00;54.90;;;;;;5027769;28;855;-68
2022/09/22 10:41:16;;;;;;;;;;;20.00;55.00;;;;;;5024746;28;1334;-68
2022/09/22 10:43:45;;;;;;;;;;;20.00;54.70;;;;;;5018711;28;2450;-68
2022/09/22 10:46:15;;;;;;;;;;;20.00;54.50;;;;;;5026742;28;1448;-68
2022/09/22 10:48:41;;;;;;;;;;;20.00;54.50;;;;;;5024623;28;1241;-68
2022/09/22 10:51:09;;;;;;;;;;;20.00;54.90;;;;;;5022799;28;867;-68
2022/09/22 10:53:35;;;;;;;;;;;20.00;54.20;;;;;;5026011;28;807;-68
2022/09/22 10:56:16;;;;;;;;;;;20.00;53.10;;;;;;5019948;28;1221;-68
2022/09/22 10:58:57;;;;;;;;;;;20.00;53.60;;;;;;5029217;28;824;-67
2022/09/22 11:01:29;;;;;;;;;;;20.00;53.60;;;;;;4998232;28;1050;-68
2022/09/22 11:04:01;;;;;;;;;;;20.00;53.30;;;;;;5018882;28;1382;-67
2022/09/22 11:12:18;;;;;;;;;;;20.00;54.50;;;;;;5017203;28;823;-68
2022/09/22 11:14:47;;;;;;;;;;;20.00;54.10;;;;;;5023226;28;1418;-67
2022/09/22 11:17:12;;;;;;;;;;;20.00;53.40;;;;;;5027722;28;933;-67
2022/09/22 11:19:58;;;;;;;;;;;20.00;52.50;;;;;;5013560;28;1249;-68
2022/09/22 11:22:23;;;;;;;;;;;20.00;52.70;;;;;;4986526;28;1910;-67
2022/09/22 11:24:52;;;;;;;;;;;19.90;52.70;;;;;;5023713;28;2133;-67
2022/09/22 11:27:23;;;;;;;;;;;20.00;53.20;;;;;;5009831;28;4035;-67
2022/09/22 11:29:49;;;;;;;;;;;20.00;53.20;;;;;;5009370;22;2117;-67
2022/09/22 11:32:27;;;;;;;;;;;20.00;53.60;;;;;;4999916;28;1914;-68
2022/09/22 11:35:02;;;;;;;;;;;19.90;53.20;;;;;;4993810;28;4413;-67
2022/09/22 11:37:57;;;;;;;;;;;19.90;52.80;;;;;;5007497;28;1509;-66
2022/09/22 11:40:41;;;;;;;;;;;19.90;52.80;;;;;;4992223;28;1816;-68
2022/09/22 11:43:25;;;;;;;;;;;19.90;52.70;;;;;;5010007;28;1922;-68
2022/09/22 11:45:52;;;;;;;;;;;19.90;51.10;;;;;;4987398;28;4496;-67
2022/09/22 11:48:22;;;;;;;;;;;19.90;51.90;;;;;;4990927;28;789;-70
2022/09/22 11:51:01;;;;;;;;;;;19.90;52.50;;;;;;4978088;28;1736;-69
2022/09/22 11:53:32;;;;;;;;;;;19.90;53.00;;;;;;4982644;28;1505;-70
2022/09/22 11:56:13;;;;;;;;;;;19.90;53.70;;;;;;4984168;28;4387;-69
2022/09/22 11:58:39;;;;;;;;;;;19.90;54.30;;;;;;4979067;28;4526;-71
2022/09/22 12:01:09;;;;;;;;;;;19.90;54.90;;;;;;4979524;28;3995;-68
2022/09/22 12:03:38;;;;;;;;;;;20.00;55.20;;;;;;4975156;28;4119;-70
2022/09/22 12:06:04;;;;;;;;;;;20.00;55.80;;;;;;4970812;28;4689;-69
2022/09/22 12:08:48;;;;;;;;;;;20.00;56.20;;;;;;4980464;28;3969;-69
2022/09/22 12:11:14;;;;;;;;;;;20.00;56.50;;;;;;4979633;28;4129;-70
2022/09/22 12:13:41;;;;;;;;;;;20.00;56.70;;;;;;4976222;28;4113;-69
2022/09/22 12:16:12;;;;;;;;;;;20.00;57.10;;;;;;4979267;28;4253;-69
2022/09/22 12:18:57;;;;;;;;;;;20.10;57.40;;;;;;4987454;28;4321;-69
2022/09/22 12:21:38;;;;;;;;;;;20.10;57.70;;;;;;4985673;28;2765;-70
2022/09/22 12:24:06;;;;;;;;;;;20.10;58.10;;;;;;4984715;28;2078;-70
2022/09/22 12:26:32;;;;;;;;;;;20.10;58.50;;;;;;5003814;28;1126;-70
2022/09/22 12:29:22;;;;;;;;;;;20.10;58.70;;;;;;4997414;28;2052;-72
2022/09/22 12:31:48;;;;;;;;;;;20.10;59.60;;;;;;4978603;28;1401;-70
2022/09/22 12:34:21;;;;;;;;;;;20.10;59.40;;;;;;4983387;28;1525;-69
2022/09/22 12:36:47;;;;;;;;;;;20.10;59.60;;;;;;5006397;28;1335;-69
2022/09/22 12:39:12;;;;;;;;;;;20.10;59.80;;;;;;4991528;28;845;-69
2022/09/22 12:41:41;;;;;;;;;;;20.20;60.00;;;;;;5005108;28;1955;-69
2022/09/22 12:44:07;;;;;;;;;;;20.20;60.20;;;;;;5001757;28;1251;-70
2022/09/22 12:46:32;;;;;;;;;;;20.20;60.50;;;;;;4986899;28;1713;-70
2022/09/22 12:48:58;;;;;;;;;;;20.20;60.70;;;;;;4989879;28;925;-70
2022/09/22 12:51:23;;;;;;;;;;;20.20;60.80;;;;;;5000194;28;1486;-69
2022/09/22 12:53:49;;;;;;;;;;;20.20;60.90;;;;;;4987304;28;798;-70
2022/09/22 12:56:33;;;;;;;;;;;20.20;61.10;;;;;;4988858;28;916;-72
2022/09/22 12:58:58;;;;;;;;;;;20.20;61.20;;;;;;4987536;28;975;-71
2022/09/22 13:01:28;;;;;;;;;;;20.20;61.30;;;;;;4984548;28;1028;-69
2022/09/22 13:04:01;;;;;;;;;;;20.20;61.50;;;;;;4971561;28;5734;-68
2022/09/22 13:06:27;;;;;;;;;;;20.20;61.60;;;;;;4977978;28;4754;-70
2022/09/22 13:08:52;;;;;;;;;;;20.20;62.40;;;;;;4982860;28;5288;-70
2022/09/22 13:11:18;;;;;;;;;;;20.20;61.80;;;;;;4986620;28;1003;-70
2022/09/22 13:13:44;;;;;;;;;;;20.20;61.90;;;;;;4997424;28;976;-70
2022/09/22 13:16:13;;;;;;;;;;;20.20;62.00;;;;;;5000872;28;1155;-70
2022/09/22 13:18:38;;;;;;;;;;;20.20;62.10;;;;;;4985215;28;808;-71
2022/09/22 13:21:13;;;;;;;;;;;20.20;62.20;;;;;;4987259;28;808;-71
2022/09/22 13:23:52;;;;;;;;;;;20.20;62.30;;;;;;4984956;28;1915;-70
2022/09/22 13:26:22;;;;;;;;;;;20.20;62.40;;;;;;5000556;28;855;-70
2022/09/22 13:29:06;;;;;;;;;;;20.20;62.60;;;;;;5003517;28;1387;-69
2022/09/22 13:31:35;;;;;;;;;;;20.20;62.60;;;;;;4979349;28;1442;-69
2022/09/22 13:34:15;;;;;;;;;;;20.20;62.70;;;;;;5003713;28;1279;-69
2022/09/22 13:36:41;;;;;;;;;;;20.20;62.80;;;;;;5005184;28;875;-71
2022/09/22 13:39:07;;;;;;;;;;;20.20;62.80;;;;;;4987085;28;815;-71
2022/09/22 13:41:33;;;;;;;;;;;20.20;63.00;;;;;;5004268;28;1369;-71
2022/09/22 13:44:01;;;;;;;;;;;20.20;63.10;;;;;;4998586;28;1906;-68
2022/09/22 13:46:39;;;;;;;;;;;20.20;63.20;;;;;;4988164;28;824;-69
2022/09/22 13:49:06;;;;;;;;;;;20.20;63.40;;;;;;4984243;28;1046;-68
2022/09/22 13:51:32;;;;;;;;;;;20.30;63.50;;;;;;4988199;28;835;-68
2022/09/22 13:53:58;;;;;;;;;;;20.20;63.50;;;;;;4991883;28;1294;-68
2022/09/22 13:56:23;;;;;;;;;;;20.30;63.70;;;;;;4985346;28;892;-69
2022/09/22 13:58:49;;;;;;;;;;;20.20;63.60;;;;;;5001305;28;986;-69
2022/09/22 14:01:19;;;;;;;;;;;20.20;63.70;;;;;;4997292;28;828;-69
2022/09/22 14:03:45;;;;;;;;;;;20.20;63.80;;;;;;4986620;28;2320;-69
2022/09/22 14:06:14;;;;;;;;;;;20.20;63.90;;;;;;4991858;28;1260;-69
2022/09/22 14:08:39;;;;;;;;;;;20.20;63.90;;;;;;5005141;28;796;-68
2022/09/22 14:11:06;;;;;;;;;;;20.30;64.00;;;;;;5002403;28;3233;-69
2022/09/22 14:13:36;;;;;;;;;;;20.30;64.10;;;;;;5002956;28;967;-68
2022/09/22 14:16:10;;;;;;;;;;;20.30;64.20;;;;;;4983196;28;1166;-70
2022/09/22 14:18:38;;;;;;;;;;;20.30;64.30;;;;;;4984989;28;1030;-68
2022/09/22 14:21:06;;;;;;;;;;;20.30;64.30;;;;;;5004131;28;858;-71
2022/09/22 14:23:31;;;;;;;;;;;20.30;64.40;;;;;;4990505;28;2001;-69
2022/09/22 14:25:58;;;;;;;;;;;20.30;64.50;;;;;;4988427;28;1328;-70
2022/09/22 14:28:24;;;;;;;;;;;20.30;64.50;;;;;;4990731;28;1889;-70
2022/09/22 14:30:49;;;;;;;;;;;20.30;64.70;;;;;;4989230;28;884;-72
2022/09/22 14:33:16;;;;;;;;;;;20.30;64.70;;;;;;4988952;28;808;-69
2022/09/22 14:35:41;;;;;;;;;;;20.30;64.70;;;;;;5003246;28;1193;-73
2022/09/22 14:38:07;;;;;;;;;;;20.30;64.80;;;;;;4991593;28;939;-72
2022/09/22 14:40:32;;;;;;;;;;;20.30;64.90;;;;;;5003745;28;950;-69
2022/09/22 14:42:59;;;;;;;;;;;20.30;65.00;;;;;;5005750;28;1906;-71
2022/09/22 14:45:26;;;;;;;;;;;20.30;65.00;;;;;;5000861;28;1247;-69
2022/09/22 14:48:10;;;;;;;;;;;20.30;65.00;;;;;;4992578;28;832;-71
2022/09/22 14:50:36;;;;;;;;;;;20.30;65.10;;;;;;4993490;28;856;-71
2022/09/22 14:53:08;;;;;;;;;;;20.30;65.20;;;;;;5001916;28;812;-71
2022/09/22 14:55:35;;;;;;;;;;;20.30;65.30;;;;;;4982252;28;1284;-68
2022/09/22 14:58:01;;;;;;;;;;;20.30;65.30;;;;;;4984215;28;867;-69